createdAt,value
2019-04-19T00:01:26.653Z,102771.27
2019-04-19T00:03:32.601Z,102764.61
2019-04-19T00:05:47.557Z,102766.36
2019-04-19T00:07:52.548Z,102767.91
2019-04-19T00:10:01.746Z,102770.91
2019-04-19T00:12:09.163Z,102769.67
2019-04-19T00:13:59.862Z,102767.76
2019-04-19T00:16:02.554Z,102767.89
2019-04-19T00:18:08.001Z,102773.77
2019-04-19T00:20:39.480Z,102775.32
2019-04-19T00:22:28.927Z,102776.20
2019-04-19T00:24:14.560Z,102779.78
2019-04-19T00:26:16.896Z,102774.91
2019-04-19T00:28:26.908Z,102781.36
2019-04-19T00:30:34.939Z,102776.42
2019-04-19T00:32:38.123Z,102776.59
2019-04-19T00:34:29.403Z,102778.75
2019-04-19T00:36:31.905Z,102779.08
2019-04-19T00:38:43.034Z,102781.10
2019-04-19T00:41:14.394Z,102782.24
2019-04-19T00:43:18.677Z,102780.56
2019-04-19T00:45:22.805Z,102783.20
2019-04-19T00:47:28.321Z,102790.28
2019-04-19T00:49:26.975Z,102785.66
2019-04-19T00:51:38.492Z,102785.81
2019-04-19T00:53:32.967Z,102782.62
2019-04-19T00:55:37.857Z,102788.53
2019-04-19T00:57:38.267Z,102789.34
2019-04-19T00:59:38.828Z,102791.17
2019-04-19T01:01:35.969Z,102788.38
2019-04-19T01:03:43.675Z,102790.02
2019-04-19T01:05:47.413Z,102794.41
2019-04-19T01:07:43.936Z,102793.73
2019-04-19T01:10:03.325Z,102792.16
2019-04-19T01:12:05.629Z,102798.41
2019-04-19T01:14:10.832Z,102800.85
2019-04-19T01:16:07.538Z,102796.95
2019-04-19T01:18:18.765Z,102802.19
2019-04-19T01:20:07.573Z,102799.28
2019-04-19T01:22:14.012Z,102799.41
2019-04-19T01:24:13.470Z,102799.91
2019-04-19T01:26:16.712Z,102799.39
2019-04-19T01:28:22.998Z,102798.91
2019-04-19T01:30:27.385Z,102803.84
2019-04-19T01:32:26.231Z,102801.59
2019-04-19T01:34:29.788Z,102799.97
2019-04-19T01:36:36.495Z,102800.63
2019-04-19T01:38:42.006Z,102802.75
2019-04-19T01:40:59.384Z,102808.30
2019-04-19T01:43:00.317Z,102808.97
2019-04-19T01:45:04.153Z,102812.73
2019-04-19T01:47:14.183Z,102807.16
2019-04-19T01:49:12.676Z,102811.93
2019-04-19T01:51:45.028Z,102816.60
2019-04-19T01:53:40.862Z,102816.09
2019-04-19T01:55:35.362Z,102815.64
2019-04-19T01:57:34.429Z,102815.53
2019-04-19T01:59:42.880Z,102812.20
2019-04-19T02:01:39.602Z,102808.67
2019-04-19T02:03:46.218Z,102806.89
2019-04-19T02:05:50.546Z,102810.28
2019-04-19T02:07:50.881Z,102808.94
2019-04-19T02:10:02.729Z,102809.08
2019-04-19T02:12:17.350Z,102809.64
2019-04-19T02:14:13.546Z,102812.83
2019-04-19T02:16:17.030Z,102811.55
2019-04-19T02:18:21.878Z,102816.52
2019-04-19T02:20:17.392Z,102816.75
2019-04-19T02:22:25.673Z,102814.42
2019-04-19T02:24:29.715Z,102815.79
2019-04-19T02:26:27.937Z,102821.09
2019-04-19T02:28:35.802Z,102817.65
2019-04-19T02:30:49.695Z,102827.47
2019-04-19T02:33:01.210Z,102818.11
2019-04-19T02:35:06.106Z,102818.27
2019-04-19T02:39:20.846Z,102823.86
2019-04-19T02:41:26.567Z,102825.42
2019-04-19T02:43:27.692Z,102830.59
2019-04-19T02:45:19.602Z,102823.31
2019-04-19T02:49:37.170Z,102830.95
2019-04-19T02:51:39.309Z,102828.69
2019-04-19T02:53:39.300Z,102832.09
2019-04-19T02:55:47.404Z,102829.95
2019-04-19T03:00:05.959Z,102823.50
2019-04-19T03:02:24.308Z,102829.23
2019-04-19T03:04:38.947Z,102826.20
2019-04-19T03:06:08.757Z,102826.64
2019-04-19T03:07:59.708Z,102830.83
2019-04-19T03:10:04.977Z,102830.39
2019-04-19T03:12:27.092Z,102833.63
2019-04-19T03:14:22.548Z,102834.39
2019-04-19T03:16:31.251Z,102829.84
2019-04-19T03:18:34.582Z,102833.73
2019-04-19T03:20:36.361Z,102834.95
2019-04-19T03:22:39.398Z,102833.24
2019-04-19T03:24:47.834Z,102839.00
2019-04-19T03:26:47.139Z,102842.05
2019-04-19T03:28:46.162Z,102839.13
2019-04-19T03:31:08.822Z,102842.65
2019-04-19T03:37:01.889Z,102844.44
2019-04-19T03:39:11.700Z,102844.47
2019-04-19T03:41:37.867Z,102852.95
2019-04-19T03:43:52.218Z,102855.10
2019-04-19T03:45:44.067Z,102852.77
2019-04-19T03:47:50.421Z,102853.97
2019-04-19T03:49:45.183Z,102855.30
2019-04-19T03:51:57.600Z,102851.89
2019-04-19T03:53:56.136Z,102854.00
2019-04-19T03:56:06.274Z,102860.98
2019-04-19T03:57:52.078Z,102863.73
2019-04-19T03:59:46.271Z,102860.44
2019-04-19T04:01:52.772Z,102863.05
2019-04-19T04:03:52.701Z,102867.60
2019-04-19T04:05:55.435Z,102864.70
2019-04-19T04:08:07.500Z,102865.95
2019-04-19T04:10:06.657Z,102865.06
2019-04-19T04:12:27.732Z,102870.19
2019-04-19T04:14:29.537Z,102872.31
2019-04-19T04:16:33.629Z,102876.09
2019-04-19T04:18:28.203Z,102873.77
2019-04-19T04:20:30.676Z,102885.85
2019-04-19T04:22:37.293Z,102887.14
2019-04-19T04:24:41.457Z,102888.45
2019-04-19T04:26:51.349Z,102891.48
2019-04-19T04:28:53.117Z,102893.60
2019-04-19T04:30:57.547Z,102891.99
2019-04-19T04:33:02.719Z,102890.26
2019-04-19T04:35:10.434Z,102900.66
2019-04-19T04:37:12.529Z,102900.57
2019-04-19T04:38:58.912Z,102899.62
2019-04-19T04:41:08.218Z,102901.78
2019-04-19T04:43:19.768Z,102903.36
2019-04-19T04:45:30.067Z,102908.30
2019-04-19T04:47:28.491Z,102910.62
2019-04-19T04:49:59.176Z,102912.89
2019-04-19T04:52:08.941Z,102916.03
2019-04-19T04:54:04.062Z,102916.89
2019-04-19T04:56:17.196Z,102920.67
2019-04-19T04:58:25.388Z,102918.79
2019-04-19T05:00:28.360Z,102924.41
2019-04-19T05:02:42.995Z,102925.09
2019-04-19T05:04:41.767Z,102925.80
2019-04-19T05:06:56.227Z,102928.72
2019-04-19T05:08:50.073Z,102927.41
2019-04-19T05:10:56.793Z,102931.64
2019-04-19T05:14:56.185Z,102932.86
2019-04-19T05:17:24.440Z,102934.17
2019-04-19T05:19:09.837Z,102928.80
2019-04-19T05:21:14.063Z,102933.60
2019-04-19T05:23:14.482Z,102934.92
2019-04-19T05:25:30.818Z,102937.05
2019-04-19T05:27:31.506Z,102940.00
2019-04-19T05:29:20.924Z,102937.06
2019-04-19T05:31:23.910Z,102941.23
2019-04-19T05:33:29.692Z,102938.79
2019-04-19T05:35:38.124Z,102939.76
2019-04-19T05:37:54.368Z,102937.26
2019-04-19T05:40:04.901Z,102940.98
2019-04-19T05:42:08.528Z,102938.25
2019-04-19T05:46:31.338Z,102944.50
2019-04-19T05:48:27.334Z,102939.98
2019-04-19T05:50:35.820Z,102940.50
2019-04-19T05:52:34.570Z,102937.51
2019-04-19T05:54:22.095Z,102933.41
2019-04-19T05:56:24.328Z,102938.28
2019-04-19T05:58:42.281Z,102933.52
2019-04-19T06:00:48.100Z,102937.99
2019-04-19T06:02:47.799Z,102932.38
2019-04-19T06:05:01.293Z,102929.84
2019-04-19T06:06:57.891Z,102929.59
2019-04-19T06:08:44.478Z,102929.40
2019-04-19T06:10:53.446Z,102935.77
2019-04-19T06:12:58.346Z,102937.88
2019-04-19T06:15:13.698Z,102931.13
2019-04-19T06:17:29.315Z,102936.98
2019-04-19T06:19:31.056Z,102935.86
2019-04-19T06:21:34.138Z,102934.98
2019-04-19T06:23:44.475Z,102934.84
2019-04-19T06:25:52.803Z,102929.94
2019-04-19T06:28:02.479Z,102928.92
2019-04-19T06:29:58.807Z,102933.12
2019-04-19T06:32:00.657Z,102927.61
2019-04-19T06:33:57.957Z,102935.13
2019-04-19T06:35:50.324Z,102933.25
2019-04-19T06:37:44.596Z,102934.87
2019-04-19T06:39:51.912Z,102928.51
2019-04-19T06:41:55.749Z,102936.15
2019-04-19T06:44:07.905Z,102935.27
2019-04-19T06:46:10.523Z,102932.91
2019-04-19T06:48:07.160Z,102936.51
2019-04-19T06:50:06.724Z,102938.27
2019-04-19T06:52:16.061Z,102941.03
2019-04-19T06:54:13.919Z,102934.52
2019-04-19T06:56:24.595Z,102940.73
2019-04-19T06:58:24.014Z,102936.05
2019-04-19T07:00:33.954Z,102942.18
2019-04-19T07:02:26.159Z,102945.59
2019-04-19T07:04:27.733Z,102935.59
2019-04-19T07:06:43.909Z,102941.30
2019-04-19T07:11:00.594Z,102942.36
2019-04-19T07:12:59.206Z,102938.29
2019-04-19T07:15:05.381Z,102938.06
2019-04-19T07:17:09.567Z,102938.92
2019-04-19T07:19:08.034Z,102936.33
2019-04-19T07:21:11.827Z,102941.16
2019-04-19T07:23:10.146Z,102938.95
2019-04-19T07:25:27.637Z,102942.80
2019-04-19T07:27:15.394Z,102943.09
2019-04-19T07:29:06.469Z,102940.09
2019-04-19T07:31:11.351Z,102943.46
2019-04-19T07:33:14.659Z,102943.91
2019-04-19T07:35:36.936Z,102945.13
2019-04-19T07:37:35.229Z,102949.72
2019-04-19T07:39:48.213Z,102947.90
2019-04-19T07:41:45.105Z,102944.84
2019-04-19T07:44:01.289Z,102951.99
2019-04-19T07:46:14.239Z,102948.59
2019-04-19T07:48:06.048Z,102945.52
2019-04-19T07:50:13.436Z,102949.09
2019-04-19T07:52:16.336Z,102950.09
2019-04-19T07:54:15.635Z,102947.73
2019-04-19T07:56:27.178Z,102950.30
2019-04-19T07:58:47.369Z,102948.48
2019-04-19T08:05:01.274Z,102954.00
2019-04-19T08:07:01.516Z,102959.09
2019-04-19T08:09:07.318Z,102960.88
2019-04-19T08:11:07.897Z,102959.03
2019-04-19T08:13:15.009Z,102956.34
2019-04-19T08:15:11.855Z,102958.93
2019-04-19T08:17:35.592Z,102956.97
2019-04-19T08:29:22.458Z,102962.80
2019-04-19T08:31:15.770Z,102957.78
2019-04-19T08:33:18.980Z,102954.23
2019-04-19T08:35:22.002Z,102959.50
2019-04-19T08:37:30.008Z,102948.73
2019-04-19T08:39:46.325Z,102950.27
2019-04-19T08:41:46.282Z,102947.92
2019-04-19T08:43:52.089Z,102947.64
2019-04-19T08:45:46.559Z,102943.66
2019-04-19T08:48:01.446Z,102944.05
2019-04-19T08:49:59.553Z,102942.30
2019-04-19T08:52:08.235Z,102938.89
2019-04-19T08:54:28.720Z,102937.61
2019-04-19T08:56:23.013Z,102943.12
2019-04-19T08:58:30.454Z,102942.89
2019-04-19T09:00:45.225Z,102941.72
2019-04-19T09:02:40.394Z,102942.31
2019-04-19T09:04:44.063Z,102941.02
2019-04-19T09:08:46.028Z,102942.38
2019-04-19T09:10:57.272Z,102940.27
2019-04-19T09:13:07.403Z,102939.81
2019-04-19T09:15:00.731Z,102937.25
2019-04-19T09:17:07.465Z,102936.14
2019-04-19T09:19:14.692Z,102936.22
2019-04-19T09:21:10.511Z,102932.84
2019-04-19T09:23:15.670Z,102937.20
2019-04-19T09:25:07.435Z,102932.22
2019-04-19T09:27:29.016Z,102926.70
2019-04-19T09:29:29.255Z,102925.41
2019-04-19T09:31:22.711Z,102922.20
2019-04-19T09:33:21.747Z,102927.23
2019-04-19T09:35:20.784Z,102925.63
2019-04-19T09:37:37.745Z,102923.98
2019-04-19T09:39:39.823Z,102921.20
2019-04-19T09:41:38.368Z,102916.48
2019-04-19T09:43:47.851Z,102910.02
2019-04-19T09:45:34.495Z,102912.81
2019-04-19T09:47:36.017Z,102912.73
2019-04-19T09:49:53.027Z,102908.91
2019-04-19T09:51:55.608Z,102904.80
2019-04-19T09:54:09.407Z,102908.72
2019-04-19T09:56:07.776Z,102904.58
2019-04-19T09:58:11.650Z,102906.33
2019-04-19T10:00:04.361Z,102905.89
2019-04-19T10:02:02.307Z,102907.14
2019-04-19T10:04:04.433Z,102902.44
2019-04-19T10:06:06.706Z,102898.77
2019-04-19T10:08:09.441Z,102898.09
2019-04-19T10:10:14.490Z,102895.27
2019-04-19T10:12:15.331Z,102894.87
2019-04-19T10:14:17.248Z,102896.90
2019-04-19T10:16:26.503Z,102894.02
2019-04-19T10:18:28.352Z,102889.62
2019-04-19T10:20:34.538Z,102889.59
2019-04-19T10:22:37.073Z,102887.56
2019-04-19T10:24:39.087Z,102890.97
2019-04-19T10:26:45.858Z,102884.65
2019-04-19T10:28:47.683Z,102887.45
2019-04-19T10:30:52.584Z,102882.50
2019-04-19T10:32:54.407Z,102875.50
2019-04-19T10:34:56.841Z,102874.39
2019-04-19T10:37:00.170Z,102873.08
2019-04-19T10:39:01.811Z,102873.20
2019-04-19T10:41:03.919Z,102867.84
2019-04-19T10:43:05.502Z,102869.63
2019-04-19T10:45:09.989Z,102875.99
2019-04-19T10:47:12.485Z,102869.00
2019-04-19T10:49:19.841Z,102873.16
2019-04-19T10:51:19.598Z,102863.95
2019-04-19T10:53:22.110Z,102860.08
2019-04-19T10:55:26.517Z,102866.87
2019-04-19T10:57:29.475Z,102868.91
2019-04-19T10:59:32.268Z,102863.00
2019-04-19T11:01:34.007Z,102851.07
2019-04-19T11:03:35.414Z,102844.83
2019-04-19T11:05:38.726Z,102844.78
2019-04-19T11:07:41.750Z,102848.69
2019-04-19T11:09:43.733Z,102851.34
2019-04-19T11:11:45.604Z,102845.00
2019-04-19T11:13:47.766Z,102840.65
2019-04-19T11:15:49.295Z,102841.89
2019-04-19T11:17:51.724Z,102843.30
2019-04-19T11:20:05.553Z,102838.61
2019-04-19T11:21:56.682Z,102838.78
2019-04-19T11:23:58.201Z,102834.20
2019-04-19T11:26:00.944Z,102835.93
2019-04-19T11:28:03.021Z,102840.29
2019-04-19T11:30:08.535Z,102828.02
2019-04-19T11:32:28.184Z,102833.52
2019-04-19T11:34:31.357Z,102834.48
2019-04-19T11:36:33.478Z,102825.16
2019-04-19T11:38:34.930Z,102819.10
2019-04-19T11:40:37.403Z,102823.86
2019-04-19T11:42:39.346Z,102816.02
2019-04-19T11:44:41.607Z,102817.31
2019-04-19T11:46:43.215Z,102812.02
2019-04-19T11:48:45.783Z,102816.52
2019-04-19T11:50:48.068Z,102807.09
2019-04-19T11:53:09.841Z,102811.57
2019-04-19T11:55:12.477Z,102809.42
2019-04-19T11:57:32.898Z,102813.44
2019-04-19T11:59:54.020Z,102813.86
2019-04-19T12:01:59.879Z,102809.53
2019-04-19T12:04:01.424Z,102813.46
2019-04-19T12:06:04.299Z,102815.05
2019-04-19T12:08:06.505Z,102804.23
2019-04-19T12:10:08.638Z,102796.14
2019-04-19T12:12:10.012Z,102800.11
2019-04-19T12:14:12.279Z,102799.83
2019-04-19T12:16:14.924Z,102794.16
2019-04-19T12:18:17.892Z,102791.88
2019-04-19T12:20:19.601Z,102797.72
2019-04-19T12:22:21.244Z,102797.84
2019-04-19T12:24:23.082Z,102794.48
2019-04-19T12:26:24.665Z,102801.48
2019-04-19T12:28:26.266Z,102794.25
2019-04-19T12:30:27.677Z,102797.28
2019-04-19T12:32:30.950Z,102791.84
2019-04-19T12:34:32.904Z,102783.23
2019-04-19T12:36:35.134Z,102790.18
2019-04-19T12:38:37.779Z,102786.95
2019-04-19T12:40:47.753Z,102788.81
2019-04-19T12:42:49.661Z,102783.25
2019-04-19T12:44:52.152Z,102780.28
2019-04-19T12:46:53.685Z,102778.76
2019-04-19T12:48:56.409Z,102774.61
2019-04-19T12:50:58.285Z,102775.39
2019-04-19T12:53:00.103Z,102773.69
2019-04-19T12:55:02.114Z,102776.98
2019-04-19T12:57:03.609Z,102773.60
2019-04-19T12:59:06.146Z,102767.61
2019-04-19T13:01:12.528Z,102772.23
2019-04-19T13:03:16.014Z,102767.72
2019-04-19T13:05:20.368Z,102757.97
2019-04-19T13:07:22.662Z,102763.33
2019-04-19T13:09:24.397Z,102761.97
2019-04-19T13:11:27.202Z,102752.95
2019-04-19T13:13:29.800Z,102762.30
2019-04-19T13:15:32.230Z,102764.19
2019-04-19T13:17:33.980Z,102752.07
2019-04-19T13:19:35.529Z,102752.70
2019-04-19T13:21:36.915Z,102751.90
2019-04-19T13:23:38.359Z,102743.73
2019-04-19T13:25:39.732Z,102739.33
2019-04-19T13:27:48.546Z,102740.92
2019-04-19T13:29:45.827Z,102739.67
2019-04-19T13:31:47.450Z,102738.48
2019-04-19T13:33:48.953Z,102739.70
2019-04-19T13:35:50.952Z,102724.05
2019-04-19T13:38:01.105Z,102731.55
2019-04-19T13:40:08.325Z,102729.81
2019-04-19T13:42:14.854Z,102736.88
2019-04-19T13:44:16.724Z,102727.08
2019-04-19T13:46:19.053Z,102730.38
2019-04-19T13:48:20.749Z,102730.54
2019-04-19T13:50:29.494Z,102728.31
2019-04-19T13:52:26.334Z,102736.39
2019-04-19T13:54:27.880Z,102729.62
2019-04-19T13:56:29.315Z,102727.15
2019-04-19T13:58:31.723Z,102728.72
2019-04-19T14:00:40.738Z,102729.34
2019-04-19T14:02:43.297Z,102727.70
2019-04-19T14:04:45.188Z,102722.89
2019-04-19T14:06:46.984Z,102716.41
2019-04-19T14:08:49.060Z,102717.48
2019-04-19T14:10:50.992Z,102727.67
2019-04-19T14:12:52.537Z,102717.25
2019-04-19T14:14:54.995Z,102714.36
2019-04-19T14:16:57.637Z,102711.33
2019-04-19T14:19:00.496Z,102708.79
2019-04-19T14:21:03.154Z,102709.92
2019-04-19T14:23:05.703Z,102700.70
2019-04-19T14:25:07.818Z,102700.67
2019-04-19T14:27:09.450Z,102701.01
2019-04-19T14:29:11.713Z,102701.66
2019-04-19T14:31:14.350Z,102702.27
2019-04-19T14:33:17.051Z,102702.33
2019-04-19T14:35:19.664Z,102693.81
2019-04-19T14:37:22.348Z,102694.33
2019-04-19T14:39:24.687Z,102692.55
2019-04-19T14:41:27.404Z,102688.50
2019-04-19T14:43:30.253Z,102688.67
2019-04-19T14:45:32.396Z,102682.94
2019-04-19T14:47:34.888Z,102682.79
2019-04-19T14:49:36.811Z,102681.66
2019-04-19T14:51:40.781Z,102683.22
2019-04-19T14:53:42.809Z,102682.02
2019-04-19T14:55:45.703Z,102675.69
2019-04-19T14:57:47.488Z,102681.75
2019-04-19T14:59:49.244Z,102683.21
2019-04-19T15:01:53.024Z,102678.75
2019-04-19T15:03:56.997Z,102678.81
2019-04-19T15:05:59.908Z,102680.69
2019-04-19T15:08:02.257Z,102678.58
2019-04-19T15:10:05.949Z,102678.43
2019-04-19T15:12:08.820Z,102676.28
2019-04-19T15:14:10.489Z,102670.62
2019-04-19T15:16:12.866Z,102670.78
2019-04-19T15:18:14.394Z,102671.81
2019-04-19T15:20:17.996Z,102671.91
2019-04-19T15:22:20.055Z,102676.67
2019-04-19T15:24:22.889Z,102670.00
2019-04-19T15:26:24.962Z,102670.20
2019-04-19T15:28:26.871Z,102670.77
2019-04-19T15:30:28.805Z,102666.36
2019-04-19T15:32:30.592Z,102663.87
2019-04-19T15:34:33.644Z,102665.17
2019-04-19T15:36:35.605Z,102660.30
2019-04-19T15:38:37.748Z,102663.42
2019-04-19T15:40:40.392Z,102660.70
2019-04-19T15:42:42.929Z,102662.57
2019-04-19T15:44:44.866Z,102657.59
2019-04-19T15:46:47.527Z,102659.00
2019-04-19T15:48:53.591Z,102656.06
2019-04-19T15:50:53.054Z,102656.48
2019-04-19T15:52:55.851Z,102656.94
2019-04-19T15:54:57.266Z,102656.27
2019-04-19T15:56:58.752Z,102654.15
2019-04-19T15:59:00.860Z,102656.43
2019-04-19T16:01:04.411Z,102647.27
2019-04-19T16:03:25.949Z,102655.01
2019-04-19T16:05:31.897Z,102656.13
2019-04-19T16:07:48.415Z,102657.48
2019-04-19T16:10:12.935Z,102650.92
2019-04-19T16:12:17.615Z,102651.09
2019-04-19T16:14:19.860Z,102653.70
2019-04-19T16:16:23.065Z,102654.83
2019-04-19T16:18:24.856Z,102654.91
2019-04-19T16:20:27.237Z,102659.86
2019-04-19T16:22:30.155Z,102658.38
2019-04-19T16:24:31.678Z,102655.89
2019-04-19T16:26:33.222Z,102654.24
2019-04-19T16:28:35.175Z,102658.14
2019-04-19T16:30:36.656Z,102654.12
2019-04-19T16:32:39.083Z,102657.87
2019-04-19T16:34:41.041Z,102653.55
2019-04-19T16:36:43.829Z,102653.63
2019-04-19T16:38:46.650Z,102652.92
2019-04-19T16:40:48.376Z,102650.77
2019-04-19T16:42:49.898Z,102647.69
2019-04-19T16:48:11.128Z,102646.52
2019-04-19T16:50:38.668Z,102650.27
2019-04-19T16:52:40.826Z,102646.65
2019-04-19T16:54:42.471Z,102649.40
2019-04-19T16:56:44.067Z,102654.19
2019-04-19T16:58:46.718Z,102651.83
2019-04-19T17:00:49.619Z,102654.95
2019-04-19T17:02:51.227Z,102654.24
2019-04-19T17:04:52.759Z,102651.71
2019-04-19T17:06:54.343Z,102648.52
2019-04-19T17:08:56.787Z,102652.31
2019-04-19T17:10:59.631Z,102653.20
2019-04-19T17:13:01.353Z,102652.78
2019-04-19T17:15:08.605Z,102654.27
2019-04-19T17:17:12.864Z,102655.98
2019-04-19T17:19:16.952Z,102656.59
2019-04-19T17:21:28.482Z,102654.27
2019-04-19T17:23:30.872Z,102654.24
2019-04-19T17:25:32.823Z,102653.47
2019-04-19T17:27:35.325Z,102656.72
2019-04-19T17:29:37.434Z,102659.54
2019-04-19T17:31:40.252Z,102659.77
2019-04-19T17:33:42.159Z,102665.13
2019-04-19T17:35:44.105Z,102665.00
2019-04-19T17:37:46.031Z,102666.23
2019-04-19T17:39:48.646Z,102664.61
2019-04-19T17:41:50.597Z,102668.31
2019-04-19T17:43:53.383Z,102667.79
2019-04-19T17:45:55.048Z,102671.38
2019-04-19T17:47:56.593Z,102673.80
2019-04-19T17:49:58.415Z,102675.97
2019-04-19T17:52:09.735Z,102679.50
2019-04-19T17:54:03.486Z,102681.88
2019-04-19T17:56:05.589Z,102685.38
2019-04-19T17:58:07.479Z,102689.98
2019-04-19T18:00:10.587Z,102693.38
2019-04-19T18:02:13.021Z,102694.64
2019-04-19T18:04:16.565Z,102699.13
2019-04-19T18:06:18.281Z,102698.04
2019-04-19T18:08:25.406Z,102698.50
2019-04-19T18:10:33.336Z,102700.38
2019-04-19T18:12:27.393Z,102703.94
2019-04-19T18:14:29.618Z,102707.00
2019-04-19T18:16:32.440Z,102707.03
2019-04-19T18:18:39.148Z,102712.00
2019-04-19T18:20:37.331Z,102712.40
2019-04-19T18:22:52.415Z,102714.30
2019-04-19T18:24:49.049Z,102711.02
2019-04-19T18:26:46.631Z,102711.24
2019-04-19T18:28:49.738Z,102714.00
2019-04-19T18:30:54.378Z,102714.41
2019-04-19T18:33:02.557Z,102712.86
2019-04-19T18:35:15.173Z,102714.39
2019-04-19T18:37:11.073Z,102712.81
2019-04-19T18:39:13.931Z,102715.23
2019-04-19T18:41:15.603Z,102717.30
2019-04-19T18:43:27.760Z,102725.23
2019-04-19T18:45:24.764Z,102727.45
2019-04-19T18:47:24.787Z,102732.92
2019-04-19T18:49:27.593Z,102731.67
2019-04-19T18:51:36.627Z,102735.05
2019-04-19T18:53:40.172Z,102736.75
2019-04-19T18:55:41.842Z,102743.23
2019-04-19T18:57:44.414Z,102739.72
2019-04-19T18:59:45.374Z,102741.56
2019-04-19T19:01:46.402Z,102748.72
2019-04-19T19:03:50.124Z,102746.88
2019-04-19T19:05:57.821Z,102747.60
2019-04-19T19:08:01.131Z,102753.46
2019-04-19T19:10:02.599Z,102755.59
2019-04-19T19:12:07.996Z,102756.76
2019-04-19T19:14:10.139Z,102758.91
2019-04-19T19:16:11.955Z,102760.84
2019-04-19T19:18:13.016Z,102757.22
2019-04-19T19:20:20.442Z,102753.31
2019-04-19T19:22:26.326Z,102758.30
2019-04-19T19:24:40.494Z,102759.75
2019-04-19T19:26:33.688Z,102764.80
2019-04-19T19:28:28.897Z,102763.29
2019-04-19T19:30:31.022Z,102764.73
2019-04-19T19:32:33.866Z,102763.00
2019-04-19T19:34:36.646Z,102766.23
2019-04-19T19:36:44.477Z,102770.20
2019-04-19T19:38:41.852Z,102768.37
2019-04-19T19:40:59.775Z,102776.23
2019-04-19T19:43:07.573Z,102775.70
2019-04-19T19:45:00.695Z,102777.12
2019-04-19T19:47:42.800Z,102779.63
2019-04-19T19:49:40.476Z,102781.79
2019-04-19T19:51:34.729Z,102785.38
2019-04-19T19:53:58.165Z,102787.69
2019-04-19T19:55:40.651Z,102785.77
2019-04-19T19:57:40.647Z,102785.66
2019-04-19T19:59:38.872Z,102782.09
2019-04-19T20:01:51.333Z,102781.63
2019-04-19T20:03:44.291Z,102781.31
2019-04-19T20:05:44.195Z,102780.88
2019-04-19T20:07:48.817Z,102787.56
2019-04-19T20:09:55.411Z,102788.77
2019-04-19T20:11:56.029Z,102789.00
2019-04-19T20:13:58.137Z,102781.97
2019-04-19T20:16:00.734Z,102788.80
2019-04-19T20:18:03.614Z,102785.50
2019-04-19T20:20:07.918Z,102791.39
2019-04-19T20:22:11.001Z,102784.73
2019-04-19T20:24:27.766Z,102790.50
2019-04-19T20:26:24.404Z,102787.16
2019-04-19T20:28:23.274Z,102789.68
2019-04-19T20:30:23.571Z,102790.25
2019-04-19T20:32:26.223Z,102789.55
2019-04-19T20:34:33.188Z,102787.70
2019-04-19T20:36:36.193Z,102788.45
2019-04-19T20:38:41.995Z,102790.02
2019-04-19T20:40:39.995Z,102789.86
2019-04-19T20:43:06.336Z,102787.52
2019-04-19T20:44:56.576Z,102790.41
2019-04-19T20:46:48.319Z,102790.45
2019-04-19T20:48:55.404Z,102794.82
2019-04-19T20:51:06.344Z,102790.67
2019-04-19T20:53:25.256Z,102795.09
2019-04-19T20:55:32.641Z,102804.59
2019-04-19T20:57:41.830Z,102802.56
2019-04-19T20:59:36.761Z,102798.27
2019-04-19T21:01:30.741Z,102801.78
2019-04-19T21:03:35.902Z,102800.61
2019-04-19T21:05:42.489Z,102798.63
2019-04-19T21:07:41.562Z,102798.62
2019-04-19T21:09:43.414Z,102798.97
2019-04-19T21:11:48.155Z,102808.33
2019-04-19T21:13:52.576Z,102806.94
2019-04-19T21:15:52.013Z,102811.55
2019-04-19T21:17:54.531Z,102809.52
2019-04-19T21:19:56.796Z,102812.13
2019-04-19T21:21:59.765Z,102815.09
2019-04-19T21:24:05.716Z,102813.63
2019-04-19T21:26:12.364Z,102816.78
2019-04-19T21:28:08.465Z,102814.02
2019-04-19T21:30:12.855Z,102816.77
2019-04-19T21:32:21.769Z,102819.75
2019-04-19T21:34:18.528Z,102822.31
2019-04-19T21:36:20.147Z,102824.11
2019-04-19T21:38:24.570Z,102822.03
2019-04-19T21:40:31.337Z,102821.08
2019-04-19T21:42:28.105Z,102826.77
2019-04-19T21:44:30.672Z,102826.73
2019-04-19T21:46:34.670Z,102818.34
2019-04-19T21:48:39.629Z,102817.90
2019-04-19T21:50:42.040Z,102828.03
2019-04-19T21:52:49.284Z,102824.09
2019-04-19T21:54:47.777Z,102821.42
2019-04-19T21:56:51.412Z,102823.58
2019-04-19T21:58:54.969Z,102820.39
2019-04-19T22:01:04.846Z,102813.73
2019-04-19T22:03:01.799Z,102826.55
2019-04-19T22:05:07.488Z,102829.58
2019-04-19T22:07:09.001Z,102829.84
2019-04-19T22:09:22.504Z,102830.17
2019-04-19T22:11:24.563Z,102828.31
2019-04-19T22:13:32.023Z,102832.30
2019-04-19T22:15:29.464Z,102829.08
2019-04-19T22:17:31.766Z,102832.23
2019-04-19T22:19:35.375Z,102837.52
2019-04-19T22:21:39.641Z,102827.91
2019-04-19T22:23:46.013Z,102837.92
2019-04-19T22:25:52.652Z,102832.61
2019-04-19T22:27:47.503Z,102834.52
2019-04-19T22:29:49.386Z,102837.04
2019-04-19T22:31:51.858Z,102840.91
2019-04-19T22:33:54.546Z,102841.87
2019-04-19T22:36:00.142Z,102841.31
2019-04-19T22:38:02.718Z,102847.90
2019-04-19T22:40:04.863Z,102847.37
2019-04-19T22:42:06.731Z,102844.70
2019-04-19T22:44:09.011Z,102848.48
2019-04-19T22:46:12.341Z,102850.30
2019-04-19T22:48:17.094Z,102851.97
2019-04-19T22:50:25.347Z,102854.05
2019-04-19T22:52:20.696Z,102853.94
2019-04-19T22:54:22.384Z,102856.38
2019-04-19T22:56:32.942Z,102855.94
2019-04-19T22:58:29.745Z,102853.08
2019-04-19T23:00:37.237Z,102856.93
2019-04-19T23:02:43.671Z,102854.52
2019-04-19T23:04:43.737Z,102852.00
2019-04-19T23:06:46.933Z,102847.25
2019-04-19T23:08:48.495Z,102847.58
2019-04-19T23:10:57.193Z,102844.53
2019-04-19T23:12:55.507Z,102848.79
2019-04-19T23:14:57.331Z,102845.75
2019-04-19T23:17:00.401Z,102847.39
2019-04-19T23:19:05.911Z,102845.48
2019-04-19T23:21:10.895Z,102842.77
2019-04-19T23:23:19.905Z,102844.09
2019-04-19T23:25:13.367Z,102850.34
2019-04-19T23:27:29.067Z,102844.97
2019-04-19T23:29:23.582Z,102845.38
2019-04-19T23:31:22.848Z,102845.41
2019-04-19T23:33:25.109Z,102843.34
2019-04-19T23:35:33.186Z,102844.72
2019-04-19T23:37:30.908Z,102840.37
2019-04-19T23:39:36.232Z,102842.05
2019-04-19T23:41:35.654Z,102839.61
2019-04-19T23:43:40.379Z,102837.02
2019-04-19T23:45:44.454Z,102840.71
2019-04-19T23:47:48.181Z,102831.67
2019-04-19T23:49:49.960Z,102832.48
2019-04-19T23:51:51.474Z,102830.05
2019-04-19T23:53:54.260Z,102830.24
2019-04-19T23:55:56.330Z,102830.83
2019-04-19T23:57:59.522Z,102824.34
